createdAt,value
2022-12-08T00:00:24.194Z,1000.07
2022-12-08T00:01:24.148Z,1000.06
2022-12-08T00:02:24.281Z,1000.05
2022-12-08T00:03:24.270Z,1000.04
2022-12-08T00:04:24.106Z,1000.01
2022-12-08T00:05:24.085Z,1000.01
2022-12-08T00:06:24.092Z,1000.00
2022-12-08T00:07:24.063Z,999.99
2022-12-08T00:08:24.257Z,999.97
2022-12-08T00:09:24.163Z,999.97
2022-12-08T00:10:47.263Z,999.98
2022-12-08T00:11:24.034Z,999.99
2022-12-08T00:12:24.057Z,1000.01
2022-12-08T00:13:23.998Z,999.97
2022-12-08T00:14:24.075Z,999.96
2022-12-08T00:15:23.982Z,999.94
2022-12-08T00:17:16.893Z,999.92
2022-12-08T00:18:17.901Z,999.93
2022-12-08T00:19:18.197Z,999.92
2022-12-08T00:20:17.895Z,999.93
2022-12-08T00:21:17.891Z,999.93
2022-12-08T00:22:17.865Z,999.92
2022-12-08T00:23:17.856Z,999.89
2022-12-08T00:24:18.680Z,999.91
2022-12-08T00:25:18.279Z,999.88
2022-12-08T00:26:17.798Z,999.86
2022-12-08T00:27:17.794Z,999.85
2022-12-08T00:28:17.779Z,999.85
2022-12-08T00:29:18.582Z,999.83
2022-12-08T00:30:18.576Z,999.85
2022-12-08T00:31:17.830Z,999.86
2022-12-08T00:32:17.916Z,999.86
2022-12-08T00:33:17.768Z,999.87
2022-12-08T00:34:17.745Z,999.84
2022-12-08T00:35:17.722Z,999.83
2022-12-08T00:36:17.719Z,999.84
2022-12-08T00:37:17.813Z,999.83
2022-12-08T00:38:18.021Z,999.81
2022-12-08T00:39:17.785Z,999.81
2022-12-08T00:40:17.710Z,999.84
2022-12-08T00:41:17.656Z,999.80
2022-12-08T00:42:17.672Z,999.81
2022-12-08T00:43:17.647Z,999.80
2022-12-08T00:44:17.608Z,999.80
2022-12-08T00:45:17.632Z,999.78
2022-12-08T00:46:17.655Z,999.80
2022-12-08T00:47:22.148Z,999.77
2022-12-08T00:48:17.580Z,999.75
2022-12-08T00:49:17.576Z,999.74
2022-12-08T00:50:17.551Z,999.74
2022-12-08T00:51:17.551Z,999.71
2022-12-08T00:52:17.549Z,999.70
2022-12-08T00:53:17.525Z,999.70
2022-12-08T00:54:17.507Z,999.69
2022-12-08T00:55:17.553Z,999.68
2022-12-08T00:56:17.484Z,999.69
2022-12-08T00:57:17.502Z,999.70
2022-12-08T00:58:17.472Z,999.71
2022-12-08T00:59:17.471Z,999.68
2022-12-08T01:00:17.450Z,999.68
2022-12-08T01:01:17.484Z,999.67
2022-12-08T01:02:17.451Z,999.66
2022-12-08T01:03:17.595Z,999.64
2022-12-08T01:04:17.401Z,999.66
2022-12-08T01:05:17.425Z,999.66
2022-12-08T01:06:17.398Z,999.65
2022-12-08T01:07:17.389Z,999.68
2022-12-08T01:08:17.439Z,999.66
2022-12-08T01:09:17.367Z,999.66
2022-12-08T01:10:17.347Z,999.65
2022-12-08T01:11:17.355Z,999.64
2022-12-08T01:12:17.339Z,999.64
2022-12-08T01:13:17.322Z,999.63
2022-12-08T01:14:17.295Z,999.62
2022-12-08T01:15:17.309Z,999.59
2022-12-08T01:16:17.323Z,999.60
2022-12-08T01:17:17.282Z,999.60
2022-12-08T01:18:17.283Z,999.58
2022-12-08T01:19:17.276Z,999.57
2022-12-08T01:20:17.232Z,999.58
2022-12-08T01:21:17.226Z,999.57
2022-12-08T01:22:17.215Z,999.57
2022-12-08T01:23:17.219Z,999.55
2022-12-08T01:24:17.212Z,999.56
2022-12-08T01:25:17.194Z,999.55
2022-12-08T01:26:17.172Z,999.56
2022-12-08T01:27:17.171Z,999.55
2022-12-08T01:28:17.151Z,999.57
2022-12-08T01:29:17.162Z,999.58
2022-12-08T01:30:17.141Z,999.57
2022-12-08T01:31:17.244Z,999.55
2022-12-08T01:32:17.114Z,999.55
2022-12-08T01:33:17.114Z,999.53
2022-12-08T01:34:17.087Z,999.51
2022-12-08T01:35:17.091Z,999.50
2022-12-08T01:36:17.097Z,999.49
2022-12-08T01:37:17.077Z,999.48
2022-12-08T01:38:17.061Z,999.49
2022-12-08T01:39:17.057Z,999.47
2022-12-08T01:40:17.032Z,999.49
2022-12-08T01:41:17.044Z,999.48
2022-12-08T01:42:17.030Z,999.49
2022-12-08T01:43:17.012Z,999.49
2022-12-08T01:44:16.984Z,999.47
2022-12-08T01:45:16.982Z,999.48
2022-12-08T01:46:17.052Z,999.48
2022-12-08T01:47:16.975Z,999.47
2022-12-08T01:48:17.055Z,999.47
2022-12-08T01:49:16.963Z,999.47
2022-12-08T01:50:16.942Z,999.45
2022-12-08T01:51:16.927Z,999.44
2022-12-08T01:52:16.899Z,999.42
2022-12-08T01:53:16.920Z,999.41
2022-12-08T01:54:16.876Z,999.41
2022-12-08T01:55:16.875Z,999.40
2022-12-08T01:56:16.865Z,999.39
2022-12-08T01:57:16.857Z,999.38
2022-12-08T01:58:16.837Z,999.36
2022-12-08T01:59:16.876Z,999.33
2022-12-08T02:00:16.819Z,999.34
2022-12-08T02:01:16.890Z,999.34
2022-12-08T02:02:16.881Z,999.32
2022-12-08T02:03:16.791Z,999.33
2022-12-08T02:04:16.799Z,999.32
2022-12-08T02:05:16.793Z,999.32
2022-12-08T02:06:16.753Z,999.31
2022-12-08T02:07:16.756Z,999.31
2022-12-08T02:08:16.816Z,999.29
2022-12-08T02:09:16.746Z,999.28
2022-12-08T06:00:53.736Z,997.79
2022-12-08T06:01:54.771Z,997.79
2022-12-08T06:02:55.096Z,997.77
2022-12-08T06:03:54.664Z,997.80
2022-12-08T06:04:54.677Z,997.78
2022-12-08T06:05:54.660Z,997.76
2022-12-08T06:06:54.649Z,997.79
2022-12-08T06:07:54.702Z,997.78
2022-12-08T06:08:54.642Z,997.79
2022-12-08T06:09:54.601Z,997.79
2022-12-08T06:10:54.787Z,997.78
2022-12-08T06:11:54.662Z,997.80
2022-12-08T06:12:54.589Z,997.79
2022-12-08T06:13:54.566Z,997.82
2022-12-08T06:14:54.587Z,997.80
2022-12-08T06:15:54.568Z,997.80
2022-12-08T06:16:54.736Z,997.82
2022-12-08T06:17:54.529Z,997.83
2022-12-08T06:18:54.528Z,997.82
2022-12-08T06:19:54.502Z,997.83
2022-12-08T06:20:54.509Z,997.81
2022-12-08T06:21:54.541Z,997.82
2022-12-08T06:22:54.500Z,997.82
2022-12-08T06:23:54.459Z,997.82
2022-12-08T06:24:54.480Z,997.82
2022-12-08T06:25:54.445Z,997.82
2022-12-08T06:26:54.438Z,997.84
2022-12-08T06:27:54.455Z,997.84
2022-12-08T06:28:54.428Z,997.84
2022-12-08T06:29:54.401Z,997.86
2022-12-08T06:30:54.427Z,997.89
2022-12-08T06:31:54.446Z,997.89
2022-12-08T06:32:54.424Z,997.89
2022-12-08T06:33:54.367Z,997.89
2022-12-08T06:34:54.370Z,997.92
2022-12-08T06:35:54.356Z,997.92
2022-12-08T06:36:54.346Z,997.93
2022-12-08T06:37:54.335Z,997.93
2022-12-08T06:38:54.356Z,997.94
2022-12-08T06:39:54.330Z,997.93
2022-12-08T06:40:54.313Z,997.92
2022-12-08T06:41:54.316Z,997.93
2022-12-08T06:42:54.288Z,997.90
2022-12-08T06:43:54.203Z,997.89
2022-12-08T06:44:54.257Z,997.91
2022-12-08T06:45:54.387Z,997.91
2022-12-08T06:46:54.213Z,997.88
2022-12-08T06:47:54.166Z,997.87
2022-12-08T06:48:54.284Z,997.86
2022-12-08T06:49:54.139Z,997.88
2022-12-08T06:50:54.141Z,997.87
2022-12-08T06:51:54.131Z,997.85
2022-12-08T06:53:03.080Z,997.85
2022-12-08T06:53:54.121Z,997.84
2022-12-08T06:54:54.124Z,997.83
2022-12-08T06:56:01.308Z,997.82
2022-12-08T06:56:54.081Z,997.85
2022-12-08T06:57:54.288Z,997.80
2022-12-08T06:58:54.056Z,997.84
2022-12-08T06:59:54.043Z,997.81
2022-12-08T07:00:54.174Z,997.81
2022-12-08T07:01:54.062Z,997.81
2022-12-08T07:02:54.105Z,997.80
2022-12-08T07:03:54.009Z,997.84
2022-12-08T07:04:53.999Z,997.80
2022-12-08T07:05:55.307Z,997.83
2022-12-08T07:06:54.008Z,997.83
2022-12-08T07:07:54.029Z,997.82
2022-12-08T07:08:53.955Z,997.87
2022-12-08T07:09:53.936Z,997.85
2022-12-08T07:10:53.947Z,997.82
2022-12-08T07:11:53.932Z,997.84
2022-12-08T07:12:53.926Z,997.89
2022-12-08T07:13:53.888Z,997.85
2022-12-08T07:14:53.893Z,997.87
2022-12-08T07:15:53.885Z,997.87
2022-12-08T07:16:53.958Z,997.89
2022-12-08T07:17:59.561Z,997.87
2022-12-08T07:18:53.880Z,997.87
2022-12-08T07:19:53.845Z,997.90
2022-12-08T07:20:53.835Z,997.88
2022-12-08T07:21:53.824Z,997.91
2022-12-08T07:22:53.831Z,997.93
2022-12-08T07:23:57.543Z,997.92
2022-12-08T07:24:53.783Z,997.92
2022-12-08T07:25:53.820Z,997.90
2022-12-08T07:26:53.762Z,997.89
2022-12-08T07:27:53.763Z,997.93
2022-12-08T07:28:53.787Z,997.90
2022-12-08T07:29:53.746Z,997.91
2022-12-08T07:30:53.741Z,997.94
2022-12-08T07:31:53.733Z,997.91
2022-12-08T07:32:53.721Z,997.91
2022-12-08T07:33:53.748Z,997.90
2022-12-08T07:34:53.671Z,997.91
2022-12-08T07:35:53.697Z,997.89
2022-12-08T07:36:53.648Z,997.88
2022-12-08T07:37:53.663Z,997.90
2022-12-08T07:38:53.640Z,997.89
2022-12-08T07:39:53.664Z,997.91
2022-12-08T07:40:53.601Z,997.88
2022-12-08T07:41:53.613Z,997.87
2022-12-08T07:42:53.582Z,997.88
2022-12-08T07:43:53.646Z,997.88
2022-12-08T07:44:53.578Z,997.89
2022-12-08T07:45:53.665Z,997.89
2022-12-08T07:46:53.573Z,997.87
2022-12-08T07:47:53.568Z,997.84
2022-12-08T07:48:53.523Z,997.86
2022-12-08T07:49:53.554Z,997.87
2022-12-08T07:50:53.520Z,997.84
2022-12-08T07:51:53.544Z,997.84
2022-12-08T07:52:53.485Z,997.84
2022-12-08T07:53:54.794Z,997.86
2022-12-08T07:54:53.468Z,997.88
2022-12-08T07:55:53.500Z,997.86
2022-12-08T07:56:53.454Z,997.87
2022-12-08T07:57:53.455Z,997.85
2022-12-08T07:58:53.427Z,997.85
2022-12-08T07:59:53.468Z,997.86
2022-12-08T08:00:53.573Z,997.87
2022-12-08T08:02:13.506Z,997.85
2022-12-08T08:02:53.516Z,997.86
2022-12-08T08:03:53.444Z,997.85
2022-12-08T08:04:53.686Z,997.85
2022-12-08T08:05:53.372Z,997.84
2022-12-08T08:06:53.379Z,997.85
2022-12-08T08:07:53.404Z,997.83
2022-12-08T08:08:53.343Z,997.84
2022-12-08T08:09:53.382Z,997.84
2022-12-08T08:10:53.320Z,997.84
2022-12-08T08:12:22.167Z,997.82
2022-12-08T08:12:53.307Z,997.84
2022-12-08T08:13:53.298Z,997.81
2022-12-08T08:14:53.272Z,997.81
2022-12-08T08:15:53.473Z,997.83
2022-12-08T08:16:53.402Z,997.82
2022-12-08T08:17:53.250Z,997.82
2022-12-08T08:18:53.248Z,997.84
2022-12-08T08:19:53.233Z,997.84
2022-12-08T08:20:53.200Z,997.87
2022-12-08T08:21:53.229Z,997.86
2022-12-08T08:22:53.221Z,997.88
2022-12-08T08:23:53.227Z,997.87
2022-12-08T08:24:53.171Z,997.88
2022-12-08T08:25:53.170Z,997.88
2022-12-08T08:26:53.147Z,997.89
2022-12-08T08:27:53.194Z,997.88
2022-12-08T08:28:53.143Z,997.89
2022-12-08T08:29:53.165Z,997.89
2022-12-08T08:30:53.140Z,997.90
2022-12-08T08:31:53.131Z,997.89
2022-12-08T08:32:53.094Z,997.89
2022-12-08T08:33:53.104Z,997.88
2022-12-08T08:34:53.062Z,997.89
2022-12-08T08:35:53.089Z,997.87
2022-12-08T08:36:53.146Z,997.85
2022-12-08T08:37:53.060Z,997.85
2022-12-08T08:38:53.066Z,997.85
2022-12-08T08:39:53.030Z,997.83
2022-12-08T08:40:53.029Z,997.84
2022-12-08T08:41:53.033Z,997.84
2022-12-08T08:42:52.975Z,997.84
2022-12-08T08:43:52.985Z,997.84
2022-12-08T08:44:52.977Z,997.87
2022-12-08T08:45:53.036Z,997.87
2022-12-08T08:46:53.089Z,997.87
2022-12-08T08:47:52.962Z,997.85
2022-12-08T08:48:52.987Z,997.85
2022-12-08T08:49:52.920Z,997.87
2022-12-08T08:50:52.903Z,997.85
2022-12-08T08:51:52.918Z,997.87
2022-12-08T08:52:52.877Z,997.88
2022-12-08T08:53:52.903Z,997.87
2022-12-08T08:54:52.869Z,997.86
2022-12-08T08:55:52.861Z,997.86
2022-12-08T08:56:52.838Z,997.85
2022-12-08T08:57:52.836Z,997.85
2022-12-08T08:58:52.812Z,997.85
2022-12-08T08:59:52.844Z,997.83
2022-12-08T09:00:52.784Z,997.82
2022-12-08T09:01:52.859Z,997.83
2022-12-08T09:02:52.768Z,997.82
2022-12-08T09:03:52.770Z,997.82
2022-12-08T09:04:52.918Z,997.81
2022-12-08T09:05:52.825Z,997.81
2022-12-08T09:06:52.750Z,997.82
2022-12-08T09:07:52.771Z,997.78
2022-12-08T09:08:52.734Z,997.78
2022-12-08T09:09:55.767Z,997.79
2022-12-08T09:10:52.685Z,997.78
2022-12-08T09:11:52.706Z,997.78
2022-12-08T09:12:52.688Z,997.75
2022-12-08T09:13:52.683Z,997.77
2022-12-08T09:14:52.667Z,997.74
2022-12-08T09:15:52.773Z,997.74
2022-12-08T09:16:52.621Z,997.78
2022-12-08T09:17:52.642Z,997.73
2022-12-08T09:18:52.608Z,997.75
2022-12-08T09:19:52.601Z,997.77
2022-12-08T09:20:52.588Z,997.76
2022-12-08T09:21:52.612Z,997.76
2022-12-08T09:22:52.562Z,997.76
2022-12-08T09:23:52.578Z,997.75
2022-12-08T09:24:52.539Z,997.75
2022-12-08T09:25:52.546Z,997.81
2022-12-08T09:26:52.524Z,997.82
2022-12-08T09:27:52.515Z,997.79
2022-12-08T09:28:52.521Z,997.81
2022-12-08T09:29:52.505Z,997.79
2022-12-08T09:30:52.570Z,997.82
2022-12-08T09:31:52.541Z,997.79
2022-12-08T09:32:52.527Z,997.81
2022-12-08T09:33:52.457Z,997.79
2022-12-08T09:34:52.556Z,997.79
2022-12-08T09:35:52.423Z,997.80
2022-12-08T09:36:52.429Z,997.77
2022-12-08T09:37:52.420Z,997.76
2022-12-08T09:38:52.432Z,997.75
2022-12-08T09:39:52.439Z,997.76
2022-12-08T09:40:52.369Z,997.75
2022-12-08T09:41:52.385Z,997.76
2022-12-08T09:42:52.356Z,997.74
2022-12-08T09:43:52.379Z,997.73
2022-12-08T09:44:52.361Z,997.75
2022-12-08T09:45:52.327Z,997.71
2022-12-08T09:46:52.439Z,997.72
2022-12-08T09:47:52.329Z,997.70
2022-12-08T09:48:52.306Z,997.70
2022-12-08T09:49:52.317Z,997.69
2022-12-08T09:50:52.265Z,997.67
2022-12-08T09:51:52.263Z,997.66
2022-12-08T09:52:52.332Z,997.68
2022-12-08T09:53:52.241Z,997.63
2022-12-08T09:54:52.261Z,997.63
2022-12-08T09:55:52.233Z,997.59
2022-12-08T09:56:52.245Z,997.57
2022-12-08T09:57:56.311Z,997.55
2022-12-08T09:58:52.198Z,997.54
2022-12-08T09:59:52.210Z,997.57
2022-12-08T10:00:52.150Z,997.48
2022-12-08T10:01:52.243Z,997.50
2022-12-08T10:02:52.149Z,997.50
2022-12-08T10:03:52.174Z,997.48
2022-12-08T10:04:52.219Z,997.46
2022-12-08T10:05:52.139Z,997.44
2022-12-08T10:06:52.105Z,997.43
2022-12-08T10:07:52.182Z,997.44
2022-12-08T10:08:52.069Z,997.43
2022-12-08T10:09:52.097Z,997.39
2022-12-08T10:10:52.063Z,997.38
2022-12-08T10:11:52.068Z,997.39
2022-12-08T10:12:52.032Z,997.38
2022-12-08T10:13:52.048Z,997.37
2022-12-08T10:14:52.767Z,997.39
2022-12-08T10:15:52.076Z,997.37
2022-12-08T10:16:52.060Z,997.37
2022-12-08T10:17:52.001Z,997.35
2022-12-08T10:18:51.969Z,997.35
2022-12-08T10:19:51.980Z,997.34
2022-12-08T10:20:51.939Z,997.36
2022-12-08T10:21:51.965Z,997.32
2022-12-08T10:22:51.933Z,997.31
2022-12-08T10:23:51.974Z,997.33
2022-12-08T10:24:51.948Z,997.32
2022-12-08T10:25:51.923Z,997.31
2022-12-08T10:26:51.892Z,997.28
2022-12-08T10:27:51.884Z,997.28
2022-12-08T10:28:51.887Z,997.31
2022-12-08T10:29:51.869Z,997.29
2022-12-08T10:30:51.889Z,997.30
2022-12-08T10:31:51.908Z,997.29
2022-12-08T10:32:51.820Z,997.30
2022-12-08T10:33:51.849Z,997.28
2022-12-08T10:34:56.162Z,997.26
2022-12-08T10:35:51.874Z,997.26
2022-12-08T10:36:51.810Z,997.25
2022-12-08T10:37:51.773Z,997.28
2022-12-08T10:38:51.787Z,997.28
2022-12-08T10:39:51.814Z,997.26
2022-12-08T10:40:51.757Z,997.25
2022-12-08T10:41:51.760Z,997.26
2022-12-08T10:42:51.723Z,997.24
2022-12-08T10:43:51.764Z,997.22
2022-12-08T10:44:51.717Z,997.21
2022-12-08T10:45:51.697Z,997.21
2022-12-08T10:46:51.737Z,997.20
2022-12-08T10:47:55.382Z,997.22
2022-12-08T10:48:51.660Z,997.18
2022-12-08T10:49:51.692Z,997.16
2022-12-08T10:50:51.634Z,997.15
2022-12-08T10:51:51.644Z,997.12
2022-12-08T10:52:51.613Z,997.11
2022-12-08T10:53:51.619Z,997.08
2022-12-08T10:54:51.597Z,997.04
2022-12-08T10:55:51.612Z,997.02
2022-12-08T10:56:51.578Z,997.02
2022-12-08T10:57:51.575Z,997.03
2022-12-08T10:58:51.550Z,997.01
2022-12-08T10:59:51.572Z,997.00
2022-12-08T11:00:51.645Z,997.03
2022-12-08T11:01:51.714Z,997.05
2022-12-08T11:02:51.573Z,996.99
2022-12-08T11:03:51.516Z,997.00
2022-12-08T11:04:51.478Z,996.99
2022-12-08T11:05:51.488Z,996.98
2022-12-08T11:06:51.503Z,996.97
2022-12-08T11:07:51.567Z,996.97
2022-12-08T11:08:51.443Z,996.98
2022-12-08T11:09:51.442Z,996.96
2022-12-08T11:10:51.442Z,996.94
2022-12-08T11:11:51.421Z,996.93
2022-12-08T11:12:51.407Z,996.95
2022-12-08T11:13:51.406Z,996.94
2022-12-08T11:14:51.383Z,996.93
2022-12-08T11:15:51.379Z,996.90
2022-12-08T11:16:51.513Z,996.89
2022-12-08T11:17:57.436Z,996.89
2022-12-08T11:18:51.346Z,996.88
2022-12-08T11:19:51.338Z,996.90
2022-12-08T11:20:51.350Z,996.88
2022-12-08T11:21:51.342Z,996.88
2022-12-08T11:22:51.326Z,996.89
2022-12-08T11:23:51.286Z,996.87
2022-12-08T11:24:51.272Z,996.85
2022-12-08T11:25:51.273Z,996.85
2022-12-08T11:26:51.302Z,996.88
2022-12-08T11:27:51.262Z,996.86
2022-12-08T11:28:51.229Z,996.82
2022-12-08T11:29:51.258Z,996.80
2022-12-08T11:30:51.225Z,996.79
2022-12-08T11:31:51.342Z,996.78
2022-12-08T11:32:51.193Z,996.76
2022-12-08T11:33:51.168Z,996.74
2022-12-08T11:34:51.173Z,996.78
2022-12-08T11:35:51.154Z,996.75
2022-12-08T11:36:51.156Z,996.75
2022-12-08T11:37:51.162Z,996.74
2022-12-08T11:38:51.142Z,996.75
2022-12-08T11:39:51.107Z,996.71
2022-12-08T11:40:51.113Z,996.72
2022-12-08T11:41:51.089Z,996.73
2022-12-08T11:42:51.095Z,996.70
2022-12-08T11:43:51.089Z,996.71
2022-12-08T11:44:51.073Z,996.71
2022-12-08T11:45:51.132Z,996.69
2022-12-08T11:46:51.077Z,996.68
2022-12-08T11:47:55.782Z,996.66
2022-12-08T11:48:51.056Z,996.67
2022-12-08T11:49:50.997Z,996.66
2022-12-08T11:50:51.029Z,996.64
2022-12-08T11:51:51.002Z,996.66
2022-12-08T11:52:50.986Z,996.63
2022-12-08T11:53:51.314Z,996.62
2022-12-08T11:54:50.961Z,996.62
2022-12-08T11:55:50.941Z,996.60
2022-12-08T11:56:50.965Z,996.60
2022-12-08T11:57:51.341Z,996.57
2022-12-08T11:58:50.934Z,996.58
2022-12-08T11:59:50.907Z,996.56
2022-12-08T12:00:50.912Z,996.54
2022-12-08T12:01:50.919Z,996.53
2022-12-08T12:02:50.920Z,996.51
2022-12-08T12:03:50.851Z,996.52
2022-12-08T12:04:50.865Z,996.49
2022-12-08T12:06:13.586Z,996.52
2022-12-08T12:06:55.375Z,996.50
2022-12-08T12:07:50.893Z,996.50
2022-12-08T12:08:50.821Z,996.49
2022-12-08T12:09:50.796Z,996.53
2022-12-08T12:10:50.801Z,996.49
2022-12-08T12:11:50.776Z,996.49
2022-12-08T12:12:50.786Z,996.49
2022-12-08T12:13:50.790Z,996.48
2022-12-08T12:14:50.748Z,996.47
2022-12-08T12:15:50.721Z,996.46
2022-12-08T12:16:50.809Z,996.44
2022-12-08T12:17:50.704Z,996.43
2022-12-08T12:18:50.716Z,996.42
2022-12-08T12:19:50.693Z,996.43
2022-12-08T12:20:50.851Z,996.43
2022-12-08T12:21:50.925Z,996.39
2022-12-08T12:22:50.694Z,996.39
2022-12-08T12:23:53.087Z,996.39
2022-12-08T12:24:50.654Z,996.40
2022-12-08T12:25:50.632Z,996.38
2022-12-08T12:26:50.622Z,996.39
2022-12-08T12:27:50.612Z,996.36
2022-12-08T12:28:50.611Z,996.36
2022-12-08T12:29:55.539Z,996.34
2022-12-08T12:30:50.618Z,996.33
2022-12-08T12:31:50.554Z,996.31
2022-12-08T12:32:50.563Z,996.31
2022-12-08T12:33:50.529Z,996.30
2022-12-08T12:34:50.527Z,996.30
2022-12-08T12:35:50.527Z,996.30
2022-12-08T12:36:50.531Z,996.28
2022-12-08T12:37:50.506Z,996.29
2022-12-08T12:38:50.493Z,996.25
2022-12-08T12:39:50.476Z,996.26
2022-12-08T12:40:50.537Z,996.25
2022-12-08T12:41:50.451Z,996.25
2022-12-08T12:42:50.465Z,996.26
2022-12-08T12:43:50.423Z,996.21
2022-12-08T12:44:50.440Z,996.22
2022-12-08T12:45:50.430Z,996.22
2022-12-08T12:46:50.426Z,996.22
2022-12-08T12:47:55.812Z,996.24
2022-12-08T12:48:50.528Z,996.22
2022-12-08T12:49:50.490Z,996.22
2022-12-08T12:50:50.380Z,996.25
2022-12-08T12:51:50.344Z,996.24
2022-12-08T12:52:50.346Z,996.23
2022-12-08T12:53:50.339Z,996.22
2022-12-08T12:54:50.331Z,996.18
2022-12-08T12:55:50.321Z,996.15
2022-12-08T12:56:50.313Z,996.14
2022-12-08T12:57:50.286Z,996.13
2022-12-08T12:58:50.277Z,996.12
2022-12-08T12:59:55.181Z,996.11
2022-12-08T13:00:50.278Z,996.10
2022-12-08T13:01:50.328Z,996.08
2022-12-08T13:02:50.300Z,996.07
2022-12-08T13:03:50.237Z,996.08
2022-12-08T13:04:50.458Z,996.07
2022-12-08T13:05:50.193Z,996.07
2022-12-08T13:06:50.229Z,996.08
2022-12-08T13:07:50.210Z,996.06
2022-12-08T13:08:50.181Z,996.07
2022-12-08T13:09:50.190Z,996.06
2022-12-08T13:10:50.170Z,996.08
2022-12-08T13:11:50.149Z,996.06
2022-12-08T13:12:50.136Z,996.06
2022-12-08T13:13:50.114Z,996.07
2022-12-08T13:14:50.149Z,996.06
2022-12-08T13:15:50.085Z,996.07
2022-12-08T13:16:50.190Z,996.10
2022-12-08T13:17:50.067Z,996.08
2022-12-08T13:18:50.107Z,996.07
2022-12-08T13:19:51.953Z,996.06
2022-12-08T13:20:50.062Z,996.04
2022-12-08T13:21:50.029Z,996.02
2022-12-08T13:22:50.028Z,995.99
2022-12-08T13:23:50.006Z,996.00
2022-12-08T13:24:50.002Z,996.01
2022-12-08T13:25:50.027Z,996.02
2022-12-08T13:26:49.984Z,995.98
2022-12-08T13:27:49.965Z,995.96
2022-12-08T13:28:49.963Z,995.97
2022-12-08T13:29:49.970Z,995.95
2022-12-08T13:30:49.972Z,995.94
2022-12-08T13:31:51.503Z,995.94
2022-12-08T13:33:16.711Z,995.94
2022-12-08T13:33:49.914Z,995.93
2022-12-08T13:34:49.893Z,995.93
2022-12-08T13:35:49.910Z,995.92
2022-12-08T13:36:50.010Z,995.91
2022-12-08T13:37:54.969Z,995.92
2022-12-08T13:38:49.862Z,995.92
2022-12-08T13:39:49.864Z,995.91
2022-12-08T13:40:49.843Z,995.92
2022-12-08T13:41:49.818Z,995.93
2022-12-08T13:42:49.824Z,995.92
2022-12-08T13:44:14.260Z,995.91
2022-12-08T13:45:19.808Z,995.88
2022-12-08T13:46:52.496Z,995.86
2022-12-08T13:47:32.337Z,995.83
2022-12-08T13:50:42.694Z,995.83
2022-12-08T13:57:38.484Z,995.80
2022-12-08T13:58:38.364Z,995.77
2022-12-08T13:59:38.310Z,995.77
2022-12-08T14:00:38.287Z,995.79
2022-12-08T14:01:38.491Z,995.81
2022-12-08T14:02:42.248Z,995.80
2022-12-08T14:03:38.299Z,995.82
2022-12-08T14:05:09.460Z,995.84
2022-12-08T14:06:10.343Z,995.84
2022-12-08T14:06:38.225Z,995.85
2022-12-08T14:07:38.354Z,995.86
2022-12-08T14:09:38.234Z,995.84
2022-12-08T14:10:38.230Z,995.84
2022-12-08T14:11:38.292Z,995.86
2022-12-08T14:12:38.153Z,995.87
2022-12-08T14:13:38.179Z,995.89
2022-12-08T14:15:38.944Z,995.90
2022-12-08T14:16:38.211Z,995.91
2022-12-08T14:17:38.139Z,995.90
2022-12-08T14:18:38.118Z,995.91
2022-12-08T14:19:38.145Z,995.91
2022-12-08T14:21:05.018Z,995.94
2022-12-08T14:21:38.167Z,995.92
2022-12-08T14:22:38.056Z,995.92
2022-12-08T14:23:38.121Z,995.91
2022-12-08T14:24:38.157Z,995.91
2022-12-08T14:25:38.167Z,995.91
2022-12-08T14:26:38.139Z,995.91
2022-12-08T14:27:38.007Z,995.90
2022-12-08T14:28:44.440Z,995.92
2022-12-08T14:29:38.052Z,995.92
2022-12-08T14:30:37.990Z,995.90
2022-12-08T14:31:38.126Z,995.91
2022-12-08T14:32:37.942Z,995.91
2022-12-08T14:33:37.946Z,995.93
2022-12-08T14:34:37.925Z,995.93
2022-12-08T14:35:37.990Z,995.94
2022-12-08T14:36:38.033Z,995.94
2022-12-08T14:37:37.962Z,995.95
2022-12-08T14:38:37.928Z,995.94
2022-12-08T14:39:37.891Z,995.96
2022-12-08T14:40:37.860Z,995.95
2022-12-08T14:41:37.890Z,995.95
2022-12-08T14:42:37.839Z,995.94
2022-12-08T14:43:37.849Z,995.93
2022-12-08T14:44:37.806Z,995.92
2022-12-08T14:45:37.853Z,995.92
2022-12-08T14:46:37.910Z,995.93
2022-12-08T14:47:37.818Z,995.92
2022-12-08T14:48:37.780Z,995.92
2022-12-08T14:49:37.782Z,995.92
2022-12-08T14:50:37.752Z,995.92
2022-12-08T14:51:37.834Z,995.93
2022-12-08T14:52:37.731Z,995.92
2022-12-08T14:53:37.939Z,995.92
2022-12-08T14:54:37.720Z,995.92
2022-12-08T14:55:37.730Z,995.93
2022-12-08T14:56:37.711Z,995.93
2022-12-08T14:57:37.703Z,995.93
2022-12-08T14:58:37.667Z,995.93
2022-12-08T14:59:37.724Z,995.96
2022-12-08T15:00:37.686Z,995.97
2022-12-08T15:01:37.813Z,995.96
2022-12-08T15:02:37.623Z,995.96
2022-12-08T15:03:37.629Z,995.95
2022-12-08T15:04:37.664Z,995.97
2022-12-08T15:05:37.609Z,995.94
2022-12-08T15:06:37.595Z,995.94
2022-12-08T15:07:37.672Z,995.93
2022-12-08T15:08:37.563Z,995.95
2022-12-08T15:09:37.687Z,995.95
2022-12-08T15:10:37.554Z,995.98
2022-12-08T15:11:37.543Z,995.98
2022-12-08T15:12:37.522Z,995.97
2022-12-08T15:13:37.526Z,995.97
2022-12-08T15:14:37.512Z,995.98
2022-12-08T15:15:37.531Z,995.98
2022-12-08T15:16:37.601Z,995.98
2022-12-08T15:17:37.485Z,995.98
2022-12-08T15:18:37.452Z,996.00
2022-12-08T15:19:37.466Z,996.00
2022-12-08T15:20:37.443Z,996.01
2022-12-08T15:21:37.482Z,996.01
2022-12-08T15:22:37.411Z,996.02
2022-12-08T15:23:37.427Z,996.03
2022-12-08T15:24:37.399Z,996.03
2022-12-08T15:25:37.403Z,996.03
2022-12-08T15:26:37.383Z,996.03
2022-12-08T15:27:49.561Z,996.05
2022-12-08T15:28:37.351Z,996.04
2022-12-08T15:29:37.399Z,996.04
2022-12-08T15:30:37.325Z,996.03
2022-12-08T15:31:37.477Z,996.01
2022-12-08T15:32:37.305Z,996.01
2022-12-08T15:33:37.324Z,995.99
2022-12-08T15:34:37.292Z,995.98
2022-12-08T15:35:40.725Z,995.97
2022-12-08T15:36:37.347Z,995.96
2022-12-08T15:37:37.286Z,995.96
2022-12-08T15:38:37.252Z,995.96
2022-12-08T15:39:37.251Z,995.95
2022-12-08T15:40:37.466Z,995.95
2022-12-08T15:41:37.223Z,995.93
2022-12-08T15:42:37.206Z,995.94
2022-12-08T15:43:37.203Z,995.94
2022-12-08T15:44:37.177Z,995.95
2022-12-08T15:45:37.193Z,995.94
2022-12-08T15:46:37.246Z,995.97
2022-12-08T15:47:37.198Z,995.95
2022-12-08T15:48:37.136Z,995.96
2022-12-08T15:49:37.124Z,995.98
2022-12-08T15:50:37.140Z,995.97
2022-12-08T15:51:37.172Z,995.97
2022-12-08T15:52:37.187Z,995.98
2022-12-08T15:53:37.139Z,995.96
2022-12-08T15:54:37.142Z,995.97
2022-12-08T15:55:39.091Z,995.98
2022-12-08T15:56:45.324Z,995.99
2022-12-08T15:58:17.426Z,996.00
2022-12-08T15:58:54.669Z,995.97
2022-12-08T15:59:37.098Z,995.97
2022-12-08T16:00:52.647Z,995.96
2022-12-08T16:01:37.118Z,995.96
2022-12-08T16:03:04.933Z,995.96
2022-12-08T16:05:25.204Z,995.93
2022-12-08T16:06:09.857Z,995.94
2022-12-08T16:07:37.172Z,995.94
2022-12-08T16:08:49.677Z,995.95
2022-12-08T16:09:37.171Z,995.96
2022-12-08T16:11:08.674Z,995.97
2022-12-08T16:12:05.130Z,995.97
2022-12-08T16:15:59.831Z,995.97
2022-12-08T16:16:36.937Z,995.98
2022-12-08T16:17:36.887Z,995.95
2022-12-08T16:18:36.886Z,995.94
2022-12-08T16:19:36.867Z,995.95
2022-12-08T16:21:05.991Z,995.93
2022-12-08T16:22:30.273Z,995.92
2022-12-08T16:23:13.025Z,995.93
2022-12-08T16:23:45.312Z,995.94
2022-12-08T16:24:36.831Z,995.93
2022-12-08T16:26:08.969Z,995.94
2022-12-08T16:27:50.849Z,995.96
2022-12-08T16:28:23.359Z,996.03
2022-12-08T16:28:54.410Z,995.98
2022-12-08T16:29:36.768Z,996.01
2022-12-08T16:30:36.774Z,996.01
2022-12-08T16:31:36.804Z,996.02
2022-12-08T16:32:36.794Z,996.01
2022-12-08T16:33:36.714Z,996.03
2022-12-08T16:34:36.741Z,996.03
2022-12-08T16:35:36.704Z,996.01